Saturday, February 28, 2015, 2:12 PM EST

KEZF, Fredericksburg, Shannon Airport

Location: Fredericksburg, VA, United States Lat: 38.267
Local Time: 2:12 PM EST (19:12 GMT) Lon: -77.45
Time Zone: US/Eastern Elev: 85 ft

Show me the last for .
Show Decoded

2015-02-28 13:55 METAR KEZF 281855Z AUTO 16003KT 10SM CLR 00/M15 A3079 RMK AO2 T00001155 =
2015-02-28 13:35 METAR KEZF 281835Z AUTO 20004KT 10SM CLR 00/M15 A3080 RMK AO2 T10021153 =
2015-02-28 13:15 METAR KEZF 281815Z AUTO 00000KT 10SM CLR M01/M16 A3081 RMK AO2 T10061160 =
2015-02-28 12:35 METAR KEZF 281735Z AUTO 00000KT 10SM CLR M01/M16 A3084 RMK AO2 T10151161 =
2015-02-28 12:15 METAR KEZF 281715Z AUTO 19004KT 10SM CLR M02/M16 A3084 RMK AO2 T10161163 =
2015-02-28 11:55 METAR KEZF 281655Z AUTO 15004KT 10SM CLR M02/M16 A3085 RMK AO2 T10211162 =
2015-02-28 11:35 METAR KEZF 281635Z AUTO 17003KT 10SM CLR M03/M16 A3085 RMK AO2 T10261164 =
2015-02-28 11:15 METAR KEZF 281615Z AUTO 00000KT 10SM CLR M02/M17 A3086 RMK AO2 T10231168 =
2015-02-28 10:35 METAR KEZF 281535Z AUTO 01005KT 10SM CLR M03/M16 A3087 RMK AO2 T10301159 =
2015-02-28 10:15 METAR KEZF 281515Z AUTO 04006KT 10SM CLR M03/M17 A3087 RMK AO2 T10351166 =
2015-02-28 09:55 METAR KEZF 281455Z AUTO 02003KT 10SM CLR M04/M17 A3087 RMK AO2 T10411168 =
2015-02-28 09:35 METAR KEZF 281435Z AUTO 03006KT 10SM CLR M04/M17 A3087 RMK AO2 T10431170 =
2015-02-28 09:15 METAR KEZF 281415Z AUTO 02007KT 10SM CLR M04/M17 A3087 RMK AO2 T10451166 =
2015-02-28 08:55 METAR KEZF 281355Z AUTO 36007KT 10SM CLR M05/M16 A3086 RMK AO2 T10491161 =
2015-02-28 08:35 METAR KEZF 281335Z AUTO 03006KT 10SM CLR M05/M16 A3086 RMK AO2 T10521158 =
2015-02-28 08:15 METAR KEZF 281315Z AUTO 36006KT 10SM CLR M06/M16 A3084 RMK AO2 T10581157 =
2015-02-28 07:55 METAR KEZF 281255Z AUTO 35003KT 10SM CLR M06/M16 A3084 RMK AO2 T10621159 =
2015-02-28 07:35 METAR KEZF 281235Z AUTO 35004KT 10SM CLR M06/M16 A3083 RMK AO2 T10651159 =
2015-02-28 07:15 METAR KEZF 281215Z AUTO 35006KT 10SM CLR M07/M16 A3082 RMK AO2 T10671158 =
2015-02-28 06:55 METAR KEZF 281155Z AUTO 36004KT 10SM CLR M07/M15 A3080 RMK AO2 T10671153 11041
                 21070 =
2015-02-28 06:35 METAR KEZF 281135Z AUTO 36004KT 10SM CLR M07/M15 A3080 RMK AO2 T10681149 =
2015-02-28 06:15 METAR KEZF 281115Z AUTO 36004KT 10SM CLR M07/M15 A3079 RMK AO2 T10671150 =
2015-02-28 05:55 METAR KEZF 281055Z AUTO 36003KT 10SM CLR M06/M15 A3079 RMK AO2 T10651147 =
2015-02-28 05:35 METAR KEZF 281035Z AUTO 35004KT 10SM CLR M06/M15 A3079 RMK AO2 T10651148 =
2015-02-28 05:15 METAR KEZF 281015Z AUTO 35003KT 10SM CLR M06/M15 A3078 RMK AO2 T10651149 =
2015-02-28 04:55 METAR KEZF 280955Z AUTO 35003KT 10SM CLR M06/M15 A3077 RMK AO2 T10631149 =
2015-02-28 04:35 METAR KEZF 280935Z AUTO 36003KT 10SM CLR M06/M15 A3076 RMK AO2 T10611150 =
2015-02-28 04:15 METAR KEZF 280915Z AUTO 01004KT 10SM CLR M06/M15 A3075 RMK AO2 T10591150 =
2015-02-28 03:35 METAR KEZF 280835Z AUTO 36003KT 10SM CLR M05/M15 A3073 RMK AO2 T10551153 =
2015-02-28 03:15 METAR KEZF 280815Z AUTO 35004KT 10SM CLR M05/M15 A3073 RMK AO2 T10541153 =
2015-02-28 02:55 METAR KEZF 280755Z AUTO 01005KT 10SM CLR M05/M15 A3072 RMK AO2 T10531153 =
2015-02-28 02:35 METAR KEZF 280735Z AUTO 02005KT 10SM CLR M05/M15 A3072 RMK AO2 T10511150 =
2015-02-28 02:15 METAR KEZF 280715Z AUTO 36004KT 10SM CLR M05/M15 A3072 RMK AO2 T10491151 =
2015-02-28 01:55 METAR KEZF 280655Z AUTO 02005KT 10SM CLR M05/M15 A3071 RMK AO2 T10481149 =
2015-02-28 01:35 METAR KEZF 280635Z AUTO 02003KT 10SM CLR M04/M15 A3070 RMK AO2 T10451150 =
2015-02-28 01:15 METAR KEZF 280615Z AUTO 36008KT 10SM CLR M04/M15 A3069 RMK AO2 T10431149 =
2015-02-28 00:55 METAR KEZF 280555Z AUTO 01005KT 10SM CLR M04/M15 A3070 RMK AO2 T10411146 11002
                 21041 400301041 =
2015-02-28 00:35 METAR KEZF 280535Z AUTO 01008G14KT 10SM CLR M04/M14 A3068 RMK AO2 T10401145 =
2015-02-28 00:15 METAR KEZF 280515Z AUTO 01006KT 10SM CLR M03/M14 A3068 RMK AO2 T10351143 =
2015-02-27 23:55 METAR KEZF 280455Z AUTO 01006KT 10SM CLR M03/M14 A3067 RMK AO2 T10311143 =
2015-02-27 23:35 METAR KEZF 280435Z AUTO 36007KT 10SM CLR M03/M14 A3066 RMK AO2 T10301142 =
2015-02-27 23:15 METAR KEZF 280415Z AUTO 01009KT 10SM CLR M03/M14 A3064 RMK AO2 T10271139 =
2015-02-27 22:35 METAR KEZF 280335Z AUTO 35006KT 10SM CLR M02/M13 A3063 RMK AO2 T10201135 =
2015-02-27 22:15 METAR KEZF 280315Z AUTO 35007KT 10SM CLR M02/M13 A3063 RMK AO2 T10191134 =
2015-02-27 21:55 METAR KEZF 280255Z AUTO 35005G16KT 10SM CLR M01/M13 A3061 RMK AO2 T10151135 =
2015-02-27 21:35 METAR KEZF 280235Z AUTO 35009KT 10SM CLR M01/M13 A3060 RMK AO2 T10141130 =
2015-02-27 21:15 METAR KEZF 280215Z AUTO 36009KT 10SM CLR M01/M12 A3059 RMK AO2 T10111125 =
2015-02-27 20:55 METAR KEZF 280155Z AUTO 36005KT 10SM CLR M01/M12 A3058 RMK AO2 T10101124 =
2015-02-27 20:35 METAR KEZF 280135Z AUTO 35007KT 10SM CLR M01/M10 A3057 RMK AO2 T10121104 =
2015-02-27 20:15 METAR KEZF 280115Z AUTO 36004KT 10SM CLR M02/M10 A3057 RMK AO2 T10161096 =
2015-02-27 19:55 METAR KEZF 280055Z AUTO 03003KT 10SM CLR M01/M10 A3056 RMK AO2 T10131100 =
2015-02-27 19:35 METAR KEZF 280035Z AUTO 04004KT 10SM CLR M01/M10 A3055 RMK AO2 T10111101 =
2015-02-27 19:15 METAR KEZF 280015Z AUTO 00000KT 10SM SCT070 00/M11 A3055 RMK AO2 T10031108 =
2015-02-27 18:55 METAR KEZF 272355Z AUTO 01003KT 10SM BKN070 00/M10 A3054 RMK AO2 T10031105 10030
                 21003 =
2015-02-27 18:35 METAR KEZF 272335Z AUTO 00000KT 10SM SCT070 OVC075 00/M11 A3052 RMK AO2
                 T00001107 =
2015-02-27 18:15 METAR KEZF 272315Z AUTO 01005KT 10SM SCT070 OVC075 00/M10 A3051 RMK AO2
                 T00011102 =
2015-02-27 17:55 METAR KEZF 272255Z AUTO 36006KT 10SM BKN060 BKN070 BKN095 01/M10 A3050 RMK AO2
                 T00061104 =
2015-02-27 17:35 METAR KEZF 272235Z AUTO 02004KT 10SM CLR 01/M11 A3050 RMK AO2 T00121107 =
2015-02-27 17:15 METAR KEZF 272215Z AUTO 36007KT 10SM CLR 02/M11 A3048 RMK AO2 T00161108 =
2015-02-27 16:55 METAR KEZF 272155Z AUTO 03007KT 10SM CLR 02/M10 A3047 RMK AO2 T00211104 =
2015-02-27 16:35 METAR KEZF 272135Z AUTO 03006KT 10SM CLR 02/M10 A3046 RMK AO2 T00171105 =
2015-02-27 16:15 METAR KEZF 272115Z AUTO 36005KT 10SM SCT065 03/M10 A3047 RMK AO2 T00251096 =
2015-02-27 15:55 METAR KEZF 272055Z AUTO 33005KT 10SM OVC065 02/M10 A3047 RMK AO2 T00231099 =
2015-02-27 15:35 METAR KEZF 272035Z AUTO 05005KT 10SM BKN065 02/M10 A3047 RMK AO2 T00181100 =
2015-02-27 15:15 METAR KEZF 272015Z AUTO 32006KT 10SM CLR 03/M09 A3045 RMK AO2 T00271095 =
2015-02-27 14:35 METAR KEZF 271935Z AUTO 31004KT 10SM CLR 03/M09 A3044 RMK AO2 T00271093 =
2015-02-27 14:15 METAR KEZF 271915Z AUTO 36009KT 10SM CLR 02/M10 A3043 RMK AO2 T00161101 =

Support USWX by starting your Amazon purchase here.